Friday, July 20, 2018, 8:18 PM EDT
Back to Local

KMDT, Harrisburg International Airport

Location: Middletown, PA, United States Lat: 40.2
Local Time: 8:18 PM EDT ( 0:18 GMT) Lon: -76.767
Time Zone: US/Eastern Elev: 308 ft

Show me the last for .
Show Decoded

2018-07-20 18:56 METAR KMDT 202256Z 15010KT 10SM SCT070 BKN250 27/16 A3003 RMK AO2 SLP167
                 T02720161 =
2018-07-20 17:56 METAR KMDT 202156Z 15010KT 10SM SCT070 SCT250 29/14 A3003 RMK AO2 SLP167
                 T02890144 =
2018-07-20 16:56 METAR KMDT 202056Z 12013KT 10SM SCT070 SCT250 29/14 A3004 RMK AO2 SLP170
                 T02940144 56016 =
2018-07-20 15:56 METAR KMDT 201956Z 13014G20KT 10SM SCT065 SCT200 30/15 A3005 RMK AO2 SLP173
                 T03000150 =
2018-07-20 14:56 METAR KMDT 201856Z 12010KT 10SM SCT065 29/16 A3007 RMK AO2 SLP180 T02940156 =
2018-07-20 13:56 METAR KMDT 201756Z 14007G15KT 10SM SCT065 29/17 A3009 RMK AO2 SLP187 T02940167
                 10300 20206 56013 =
2018-07-20 12:56 METAR KMDT 201656Z 15006KT 10SM SCT060 29/17 A3010 RMK AO2 SLP191 T02940167 =
2018-07-20 11:56 METAR KMDT 201556Z VRB04KT 10SM SCT035 28/17 A3012 RMK AO2 SLP196 T02780172 =
2018-07-20 10:56 METAR KMDT 201456Z 14004KT 10SM CLR 27/19 A3013 RMK AO2 SLP200 T02670189 58001 =
2018-07-20 09:56 METAR KMDT 201356Z VRB05KT 10SM CLR 24/18 A3013 RMK AO2 SLP201 T02440178 =
2018-07-20 08:56 METAR KMDT 201256Z 15003KT 10SM CLR 23/17 A3014 RMK AO2 SLP204 T02280172 =
2018-07-20 07:56 METAR KMDT 201156Z 00000KT 10SM BKN250 21/16 A3013 RMK AO2 SLP202 T02060156
                 10206 20172 51008 =
2018-07-20 06:56 METAR KMDT 201056Z 05003KT 10SM BKN250 18/15 A3012 RMK AO2 SLP199 T01830150 =
2018-07-20 05:56 METAR KMDT 200956Z 04004KT 10SM BKN250 17/15 A3012 RMK AO2 SLP197 T01720150 =
2018-07-20 04:56 METAR KMDT 200856Z 07004KT 10SM BKN250 18/14 A3011 RMK AO2 SLP194 T01830144
                 51002 =
2018-07-20 03:56 METAR KMDT 200756Z 10005KT 10SM FEW060 BKN250 19/14 A3011 RMK AO2 SLP193
                 T01890144 =
2018-07-20 02:56 METAR KMDT 200656Z 12006KT 9SM FEW060 BKN250 18/14 A3010 RMK AO2 SLP193
                 T01830139 =
2018-07-20 01:56 METAR KMDT 200556Z 11008KT 9SM SCT250 19/14 A3010 RMK AO2 SLP192 T01940139 10256
                 20189 51005 =
2018-07-20 00:56 METAR KMDT 200456Z 00000KT 10SM FEW250 20/15 A3010 RMK AO2 SLP191 T02000150
                 402940161 =
2018-07-19 23:56 METAR KMDT 200356Z 09003KT 10SM FEW250 21/15 A3009 RMK AO2 SLP190 T02060150 =
2018-07-19 22:56 METAR KMDT 200256Z 09003KT 10SM FEW250 22/15 A3009 RMK AO2 SLP187 T02170150
                 51014 =
2018-07-19 21:56 METAR KMDT 200156Z 07004KT 10SM FEW250 23/14 A3007 RMK AO2 SLP183 T02330144 =
2018-07-19 20:56 METAR KMDT 200056Z 00000KT 10SM FEW050 FEW250 23/18 A3006 RMK AO2 SLP177
                 T02330178 =

Support USWX by starting your Amazon purchase here.